Time;durP1;ratioP1;P1;durP2;ratioP2;P2;SDS_P1;SDS_P2;PMS_P1;PMS_P2;Temp;Humidity;BMP_temperature;BMP_pressure;BME280_temperature;BME280_humidity;BME280_pressure;Samples;Min_cycle;Max_cycle;Signal;HPM_P1;HPM_P2
2023/08/08 00:01:21;;;;;;;1.63;1.23;;;20.50;71.70;;;;;;4997459;28;20180;-70
2023/08/08 00:03:47;;;;;;;2.40;1.70;;;20.50;71.70;;;;;;4997293;28;20183;-71
2023/08/08 00:06:13;;;;;;;1.95;1.40;;;20.50;71.60;;;;;;4997349;28;20192;-71
2023/08/08 00:08:39;;;;;;;1.35;1.25;;;20.50;71.70;;;;;;4987442;28;20308;-71
2023/08/08 00:11:05;;;;;;;1.83;1.50;;;20.50;71.70;;;;;;5006961;28;20192;-68
2023/08/08 00:13:30;;;;;;;2.08;1.50;;;20.50;71.70;;;;;;4997112;28;20347;-68
2023/08/08 00:15:56;;;;;;;1.30;1.20;;;20.50;72.50;;;;;;4981207;28;20192;-70
2023/08/08 00:18:22;;;;;;;1.75;1.50;;;20.50;71.70;;;;;;4965306;28;20240;-70
2023/08/08 00:20:47;;;;;;;2.20;1.60;;;20.50;71.80;;;;;;4961202;28;20223;-70
2023/08/08 00:23:13;;;;;;;2.20;1.27;;;20.50;71.70;;;;;;4991237;28;20188;-70
2023/08/08 00:25:39;;;;;;;1.90;1.40;;;20.50;71.70;;;;;;4972694;28;20203;-69
2023/08/08 00:28:05;;;;;;;1.67;1.30;;;20.50;71.80;;;;;;4983845;28;20201;-70
2023/08/08 00:30:31;;;;;;;1.33;1.20;;;20.50;71.70;;;;;;4977374;28;20188;-70
2023/08/08 00:32:56;;;;;;;3.28;1.30;;;20.50;71.80;;;;;;4988993;28;20184;-70
2023/08/08 00:35:22;;;;;;;1.33;1.23;;;20.50;71.70;;;;;;4981814;28;20197;-70
2023/08/08 00:37:48;;;;;;;1.85;1.40;;;20.50;71.70;;;;;;4992334;28;20241;-70
2023/08/08 00:40:14;;;;;;;2.40;1.40;;;20.50;71.70;;;;;;4966921;28;20670;-67
2023/08/08 00:42:40;;;;;;;2.45;1.42;;;20.50;71.70;;;;;;4980422;28;20192;-70
2023/08/08 00:45:06;;;;;;;1.77;1.40;;;20.50;71.70;;;;;;4996696;28;20191;-70
2023/08/08 00:47:34;;;;;;;1.77;1.40;;;20.40;71.60;;;;;;4973635;28;20297;-69
2023/08/08 00:50:02;;;;;;;2.08;1.40;;;20.50;71.60;;;;;;5010188;28;20181;-70
2023/08/08 00:52:28;;;;;;;2.22;1.23;;;20.50;71.70;;;;;;4976960;28;20196;-71
2023/08/08 00:54:55;;;;;;;1.70;1.20;;;20.50;71.50;;;;;;4993265;28;20275;-68
2023/08/08 00:57:21;;;;;;;1.63;1.30;;;20.50;71.60;;;;;;4960775;28;20193;-70
2023/08/08 00:59:47;;;;;;;1.88;1.38;;;20.50;71.60;;;;;;4994635;28;20213;-70
2023/08/08 01:02:15;;;;;;;2.47;1.45;;;20.50;71.70;;;;;;4974725;28;20212;-70
2023/08/08 01:04:41;;;;;;;1.20;1.10;;;20.50;71.60;;;;;;4977753;28;20674;-67
2023/08/08 01:07:30;;;;;;;1.65;1.20;;;20.50;71.50;;;;;;4996108;28;20188;-72
2023/08/08 01:10:08;;;;;;;2.00;1.42;;;20.50;71.60;;;;;;5002058;28;20197;-70
2023/08/08 01:12:44;;;;;;;1.58;1.20;;;20.50;71.70;;;;;;4978092;28;20192;-71
2023/08/08 01:15:12;;;;;;;1.40;1.30;;;20.50;71.70;;;;;;4976667;28;20242;-70
2023/08/08 01:17:40;;;;;;;2.33;1.30;;;20.50;71.70;;;;;;5008909;28;20215;-71
2023/08/08 01:20:08;;;;;;;1.15;1.10;;;20.50;71.70;;;;;;4987671;28;20710;-70
2023/08/08 01:23:10;;;;;;;2.25;1.30;;;20.50;71.70;;;;;;4971890;28;20181;-70
2023/08/08 01:25:37;;;;;;;2.22;1.25;;;20.50;71.60;;;;;;4992416;28;20188;-70
2023/08/08 01:28:05;;;;;;;1.33;1.00;;;20.50;71.60;;;;;;4983788;28;20598;-70
2023/08/08 01:30:30;;;;;;;1.20;1.10;;;20.50;71.60;;;;;;4983163;28;20192;-68
2023/08/08 01:32:56;;;;;;;1.60;1.25;;;20.50;71.60;;;;;;4995774;28;20203;-71
2023/08/08 01:35:28;;;;;;;2.58;1.27;;;20.40;71.50;;;;;;4973349;28;20196;-71
2023/08/08 01:38:06;;;;;;;1.55;1.33;;;20.40;71.90;;;;;;4976030;28;20243;-70
2023/08/08 01:40:33;;;;;;;1.42;1.33;;;20.50;71.60;;;;;;4984085;28;20228;-70
2023/08/08 01:42:59;;;;;;;2.05;1.02;;;20.50;71.60;;;;;;4994927;28;20180;-70
2023/08/08 01:45:26;;;;;;;1.40;1.10;;;20.40;71.50;;;;;;5011740;28;20184;-70
2023/08/08 01:47:52;;;;;;;1.30;1.20;;;20.40;71.60;;;;;;5001461;28;20212;-70
2023/08/08 01:50:18;;;;;;;1.27;1.10;;;20.40;71.60;;;;;;4973424;28;20204;-71
2023/08/08 01:52:44;;;;;;;1.27;1.17;;;20.40;71.50;;;;;;4971377;28;20210;-71
2023/08/08 01:55:10;;;;;;;1.30;1.20;;;20.40;71.50;;;;;;4999528;28;20224;-71
2023/08/08 01:57:36;;;;;;;1.23;1.13;;;20.40;71.50;;;;;;4999821;28;20220;-71
2023/08/08 02:00:04;;;;;;;1.38;1.27;;;20.50;71.60;;;;;;4983869;28;20197;-70
2023/08/08 02:02:41;;;;;;;1.33;1.23;;;20.50;71.60;;;;;;4993292;28;20223;-70
2023/08/08 02:05:07;;;;;;;1.10;1.00;;;20.40;71.40;;;;;;4971092;28;20176;-70
2023/08/08 02:07:32;;;;;;;1.23;1.13;;;20.40;71.40;;;;;;4987850;28;20220;-71
2023/08/08 02:10:00;;;;;;;1.40;1.17;;;20.40;71.40;;;;;;4978322;28;20572;-71
2023/08/08 02:12:25;;;;;;;1.10;1.00;;;20.40;71.40;;;;;;4999391;28;20196;-71
2023/08/08 02:14:51;;;;;;;1.48;1.27;;;20.40;71.40;;;;;;4968776;28;20191;-70
2023/08/08 02:17:17;;;;;;;1.55;1.08;;;20.40;71.40;;;;;;4994919;28;20205;-70
2023/08/08 02:19:43;;;;;;;2.67;1.40;;;20.40;71.50;;;;;;5011119;28;20266;-70
2023/08/08 02:22:09;;;;;;;1.17;1.00;;;20.40;71.60;;;;;;4998975;28;20192;-71
2023/08/08 02:24:35;;;;;;;1.20;1.10;;;20.40;71.50;;;;;;4959252;28;20189;-71
2023/08/08 02:27:01;;;;;;;1.55;1.10;;;20.40;71.50;;;;;;4983354;28;20191;-70
2023/08/08 02:29:26;;;;;;;1.58;1.00;;;20.40;71.50;;;;;;4959166;28;20216;-70
2023/08/08 02:31:52;;;;;;;1.30;1.20;;;20.40;71.50;;;;;;4960399;28;20188;-71
2023/08/08 02:34:18;;;;;;;1.10;1.00;;;20.40;71.50;;;;;;4972253;28;20199;-71
2023/08/08 02:36:44;;;;;;;1.85;1.10;;;20.40;71.60;;;;;;4991549;28;20192;-70
2023/08/08 02:39:09;;;;;;;1.20;1.10;;;20.40;71.50;;;;;;5010907;28;20315;-70
2023/08/08 02:41:35;;;;;;;1.35;1.10;;;20.40;71.50;;;;;;4996912;28;20188;-70
2023/08/08 02:44:01;;;;;;;2.80;1.45;;;20.40;71.50;;;;;;4994619;28;20192;-71
2023/08/08 02:46:27;;;;;;;1.20;1.10;;;20.40;71.50;;;;;;4964495;28;20212;-70
2023/08/08 02:48:53;;;;;;;1.20;1.10;;;20.40;71.50;;;;;;4958755;28;20243;-71
2023/08/08 02:51:19;;;;;;;1.85;1.08;;;20.40;71.40;;;;;;4959252;28;20356;-70
2023/08/08 02:53:44;;;;;;;0.80;0.80;;;20.40;71.40;;;;;;4975139;28;20217;-71
2023/08/08 02:56:10;;;;;;;1.15;0.90;;;20.40;71.40;;;;;;4994373;28;20192;-70
2023/08/08 02:58:40;;;;;;;1.42;0.95;;;20.40;71.50;;;;;;4978180;28;20216;-69
2023/08/08 03:01:06;;;;;;;1.73;1.17;;;20.40;71.50;;;;;;4967259;28;20172;-70
2023/08/08 03:03:32;;;;;;;1.05;0.90;;;20.40;71.40;;;;;;4989179;28;20267;-71
2023/08/08 03:05:58;;;;;;;2.03;1.38;;;20.40;71.50;;;;;;5010546;28;20254;-70
2023/08/08 03:08:27;;;;;;;1.20;1.10;;;20.40;71.40;;;;;;5010342;28;20287;-70
2023/08/08 03:10:53;;;;;;;1.17;1.10;;;20.40;71.50;;;;;;5010866;28;20326;-71
2023/08/08 03:13:19;;;;;;;0.98;0.98;;;20.40;71.40;;;;;;5010578;28;20192;-71
2023/08/08 03:15:46;;;;;;;1.00;1.00;;;20.40;71.50;;;;;;4994101;28;20586;-71
2023/08/08 03:18:12;;;;;;;0.82;0.82;;;20.40;71.50;;;;;;4990179;28;20200;-71
2023/08/08 03:20:37;;;;;;;1.20;1.10;;;20.40;71.50;;;;;;4958932;28;20208;-71
2023/08/08 03:23:05;;;;;;;1.10;1.00;;;20.40;71.50;;;;;;4958263;28;20185;-71
2023/08/08 03:25:31;;;;;;;1.00;0.90;;;20.40;71.50;;;;;;4990934;28;20189;-71
2023/08/08 03:27:57;;;;;;;1.13;1.00;;;20.30;71.50;;;;;;4990500;28;20209;-70
2023/08/08 03:30:23;;;;;;;0.98;0.95;;;20.40;71.60;;;;;;4987440;28;20208;-71
2023/08/08 03:32:49;;;;;;;1.92;1.30;;;20.40;71.50;;;;;;4993980;28;20245;-71
2023/08/08 03:35:15;;;;;;;1.10;1.00;;;20.40;71.50;;;;;;4986072;28;20191;-70
2023/08/08 03:37:42;;;;;;;1.17;1.08;;;20.40;71.50;;;;;;4974290;28;20215;-70
2023/08/08 03:40:08;;;;;;;0.90;0.90;;;20.40;71.50;;;;;;5006851;28;20286;-70
2023/08/08 03:42:34;;;;;;;1.38;1.00;;;20.30;71.40;;;;;;4996660;28;20181;-71
2023/08/08 03:45:00;;;;;;;1.27;1.05;;;20.40;71.50;;;;;;5013281;28;20199;-70
2023/08/08 03:47:27;;;;;;;1.25;0.80;;;20.30;71.40;;;;;;4958170;28;20219;-70
2023/08/08 03:49:57;;;;;;;2.22;1.15;;;20.40;71.50;;;;;;4958668;28;20196;-71
2023/08/08 03:52:24;;;;;;;1.23;0.90;;;20.30;71.30;;;;;;4987166;28;20192;-71
2023/08/08 03:54:51;;;;;;;1.08;0.95;;;20.30;71.40;;;;;;4989517;28;20227;-71
2023/08/08 03:57:17;;;;;;;2.00;1.20;;;20.30;71.30;;;;;;4973239;28;20263;-70
2023/08/08 03:59:43;;;;;;;0.73;0.73;;;20.30;71.40;;;;;;4974358;28;20295;-71
2023/08/08 04:02:08;;;;;;;0.90;0.90;;;20.40;71.40;;;;;;4977779;28;20570;-71
2023/08/08 04:04:34;;;;;;;1.05;0.95;;;20.40;71.40;;;;;;4978133;28;20200;-70
2023/08/08 04:07:00;;;;;;;1.02;1.02;;;20.40;71.60;;;;;;4980662;28;20241;-70
2023/08/08 04:09:26;;;;;;;1.33;1.10;;;20.40;71.50;;;;;;5005367;28;20279;-70
2023/08/08 04:11:52;;;;;;;1.55;1.08;;;20.30;71.40;;;;;;4989042;28;20197;-70
2023/08/08 04:14:17;;;;;;;0.90;0.90;;;20.30;71.40;;;;;;4985798;28;20193;-70
2023/08/08 04:16:43;;;;;;;1.30;1.05;;;20.30;72.20;;;;;;4969351;28;20199;-71
2023/08/08 04:19:09;;;;;;;1.52;0.88;;;20.30;71.40;;;;;;4979532;28;20234;-71
2023/08/08 04:21:34;;;;;;;0.93;0.73;;;20.30;71.50;;;;;;5007880;28;20271;-70
2023/08/08 04:24:02;;;;;;;1.95;0.90;;;20.30;71.40;;;;;;5002617;28;20195;-70
2023/08/08 04:26:28;;;;;;;1.20;1.10;;;20.30;71.50;;;;;;4984346;28;20263;-71
2023/08/08 04:28:53;;;;;;;1.00;1.00;;;20.30;71.50;;;;;;4993252;28;20686;-71
2023/08/08 04:31:19;;;;;;;0.93;0.90;;;20.30;71.40;;;;;;4988794;28;20564;-70
2023/08/08 04:33:45;;;;;;;1.02;1.00;;;20.30;71.40;;;;;;4977693;28;20767;-71
2023/08/08 04:36:11;;;;;;;1.38;1.08;;;20.30;71.40;;;;;;4994481;28;20188;-71
2023/08/08 04:38:36;;;;;;;1.23;1.10;;;20.30;71.30;;;;;;5007187;28;20204;-71
2023/08/08 04:41:02;;;;;;;1.20;1.10;;;20.30;71.40;;;;;;4988573;28;20204;-71
2023/08/08 04:43:28;;;;;;;1.17;1.08;;;20.30;71.40;;;;;;5019854;28;20180;-71
2023/08/08 04:45:54;;;;;;;1.45;1.10;;;20.30;71.40;;;;;;4997880;28;20223;-70
2023/08/08 04:48:20;;;;;;;0.90;0.90;;;20.30;71.30;;;;;;4977072;28;20204;-70
2023/08/08 04:50:49;;;;;;;1.80;1.10;;;20.30;71.40;;;;;;4975689;28;20274;-71
2023/08/08 04:53:14;;;;;;;1.10;1.10;;;20.30;71.40;;;;;;4996337;28;20188;-70
2023/08/08 04:55:40;;;;;;;0.95;0.95;;;20.30;71.40;;;;;;4996414;28;20207;-71
2023/08/08 04:58:06;;;;;;;1.48;1.38;;;20.30;71.40;;;;;;4995955;28;20207;-66
2023/08/08 05:00:32;;;;;;;2.47;1.85;;;20.30;71.40;;;;;;4972333;28;20243;-71
2023/08/08 05:02:57;;;;;;;1.60;1.50;;;20.30;71.40;;;;;;4996261;28;20258;-71
2023/08/08 05:05:23;;;;;;;1.20;1.10;;;20.30;71.30;;;;;;4987284;28;20188;-69
2023/08/08 05:07:49;;;;;;;1.40;1.30;;;20.30;71.50;;;;;;4995911;28;20204;-70
2023/08/08 05:10:14;;;;;;;1.45;1.10;;;20.30;71.40;;;;;;4969293;28;20667;-70
2023/08/08 05:12:41;;;;;;;1.58;1.48;;;20.30;71.50;;;;;;4984791;28;20192;-70
2023/08/08 05:15:07;;;;;;;1.20;1.10;;;20.30;71.40;;;;;;4980739;28;20184;-70
2023/08/08 05:17:33;;;;;;;1.40;1.30;;;20.30;71.40;;;;;;5000717;28;20201;-70
2023/08/08 05:19:58;;;;;;;1.73;1.48;;;20.30;71.40;;;;;;4984645;28;20215;-69
2023/08/08 05:22:24;;;;;;;1.23;1.20;;;20.30;71.50;;;;;;5001588;28;20262;-70
2023/08/08 05:24:50;;;;;;;1.27;1.17;;;20.30;71.50;;;;;;4975347;28;20195;-70
2023/08/08 05:27:16;;;;;;;1.60;1.50;;;20.30;71.40;;;;;;4984968;28;20195;-71
2023/08/08 05:29:41;;;;;;;1.83;1.63;;;20.30;71.50;;;;;;4960068;28;20195;-70
2023/08/08 05:32:08;;;;;;;1.20;1.10;;;20.30;71.40;;;;;;5009981;28;20195;-70
2023/08/08 05:34:34;;;;;;;1.92;1.40;;;20.30;71.40;;;;;;5013405;28;20184;-70
2023/08/08 05:37:00;;;;;;;1.70;1.60;;;20.30;71.40;;;;;;4979316;28;20238;-70
2023/08/08 05:39:26;;;;;;;1.10;1.00;;;20.30;71.50;;;;;;4983737;28;20225;-70
2023/08/08 05:41:52;;;;;;;1.70;1.60;;;20.30;71.40;;;;;;4991393;28;20219;-70
2023/08/08 05:44:18;;;;;;;1.40;1.30;;;20.30;71.50;;;;;;4984936;28;20212;-71
2023/08/08 05:46:44;;;;;;;1.58;1.33;;;20.30;71.40;;;;;;4960092;28;20188;-71
2023/08/08 05:49:09;;;;;;;1.55;1.45;;;20.30;71.50;;;;;;4967789;28;20238;-70
2023/08/08 05:51:35;;;;;;;1.45;1.35;;;20.30;71.40;;;;;;4988946;28;20188;-71
2023/08/08 05:54:01;;;;;;;1.60;1.50;;;20.30;71.50;;;;;;4963066;28;20257;-70
2023/08/08 05:56:36;;;;;;;1.83;1.50;;;20.30;71.50;;;;;;4959892;28;20661;-70
2023/08/08 05:59:02;;;;;;;2.00;1.40;;;20.30;71.50;;;;;;4983978;28;20587;-70
2023/08/08 06:01:28;;;;;;;1.40;1.30;;;20.30;71.50;;;;;;4990060;28;20176;-70
2023/08/08 06:03:54;;;;;;;1.20;1.10;;;20.30;71.50;;;;;;4959768;28;20196;-70
2023/08/08 06:06:19;;;;;;;1.35;1.25;;;20.30;71.50;;;;;;4992024;28;20188;-71
2023/08/08 06:08:45;;;;;;;1.10;1.10;;;20.30;71.50;;;;;;4991862;28;20264;-72
2023/08/08 06:11:11;;;;;;;1.40;1.30;;;20.30;71.50;;;;;;5001256;28;20204;-71
2023/08/08 06:13:36;;;;;;;1.10;1.10;;;20.30;71.50;;;;;;5012455;28;20184;-71
2023/08/08 06:16:06;;;;;;;1.52;1.42;;;20.30;71.50;;;;;;4978896;28;20193;-70
2023/08/08 06:18:33;;;;;;;1.40;1.30;;;20.30;71.50;;;;;;4979262;28;20208;-70
2023/08/08 06:20:59;;;;;;;0.95;0.93;;;20.30;71.50;;;;;;5004047;28;20227;-70
2023/08/08 06:23:24;;;;;;;1.30;1.17;;;20.30;71.50;;;;;;4991163;28;20252;-70
2023/08/08 06:25:50;;;;;;;1.25;1.15;;;20.30;71.40;;;;;;4965758;28;20200;-70
2023/08/08 06:28:16;;;;;;;1.23;1.13;;;20.30;71.50;;;;;;4986855;28;20270;-69
2023/08/08 06:30:41;;;;;;;1.30;1.20;;;20.30;71.50;;;;;;4967740;28;20208;-70
2023/08/08 06:33:08;;;;;;;1.38;1.17;;;20.30;71.50;;;;;;4983244;28;20199;-70
2023/08/08 06:35:34;;;;;;;1.23;1.13;;;20.30;71.50;;;;;;4987101;28;20192;-70
2023/08/08 06:38:00;;;;;;;1.30;1.20;;;20.40;71.60;;;;;;4970958;28;20216;-70
2023/08/08 06:40:25;;;;;;;1.08;1.08;;;20.40;71.60;;;;;;4974891;28;20211;-71
2023/08/08 06:42:51;;;;;;;1.70;1.30;;;20.40;71.70;;;;;;4993401;28;20197;-70
2023/08/08 06:45:17;;;;;;;1.08;1.05;;;20.40;71.70;;;;;;4971202;28;20223;-71
2023/08/08 06:47:43;;;;;;;3.10;1.50;;;20.40;71.70;;;;;;4982451;28;20213;-70
2023/08/08 06:50:09;;;;;;;3.55;1.40;;;20.40;71.80;;;;;;4981694;28;20319;-70
2023/08/08 06:52:35;;;;;;;2.45;1.30;;;20.40;71.90;;;;;;4986496;28;20270;-70
2023/08/08 06:55:01;;;;;;;1.65;1.05;;;20.40;72.00;;;;;;4974375;28;20204;-70
2023/08/08 06:57:27;;;;;;;3.05;1.00;;;20.30;72.10;;;;;;4991976;28;20219;-70
2023/08/08 06:59:53;;;;;;;1.67;1.20;;;20.30;72.20;;;;;;4994335;28;20216;-70
2023/08/08 07:02:20;;;;;;;2.08;1.10;;;20.30;72.30;;;;;;4974887;28;20197;-70
2023/08/08 07:04:46;;;;;;;2.03;1.35;;;20.30;72.30;;;;;;4991395;28;20220;-71
2023/08/08 07:07:12;;;;;;;1.77;1.33;;;20.40;72.30;;;;;;5006419;28;20223;-70
2023/08/08 07:09:37;;;;;;;3.45;1.15;;;20.30;72.10;;;;;;4986519;28;20655;-70
2023/08/08 07:12:04;;;;;;;1.58;1.48;;;20.30;72.30;;;;;;4971230;28;20188;-70
2023/08/08 07:14:30;;;;;;;3.70;1.50;;;20.30;72.30;;;;;;4991672;28;20199;-71
2023/08/08 07:16:55;;;;;;;3.75;1.73;;;20.30;72.40;;;;;;4993944;28;20234;-70
2023/08/08 07:19:21;;;;;;;4.85;1.40;;;20.30;72.40;;;;;;5000883;28;20246;-70
2023/08/08 07:21:47;;;;;;;2.20;1.60;;;20.30;72.50;;;;;;4982974;28;20223;-70
2023/08/08 07:24:14;;;;;;;1.60;1.50;;;20.30;72.40;;;;;;5003877;28;20206;-70
2023/08/08 07:26:39;;;;;;;3.30;1.05;;;20.30;72.30;;;;;;4994345;28;20188;-70
2023/08/08 07:29:05;;;;;;;3.45;1.30;;;20.40;72.40;;;;;;4992611;28;20212;-70
2023/08/08 07:31:32;;;;;;;2.30;1.35;;;20.40;72.30;;;;;;4986234;28;20201;-70
2023/08/08 07:33:58;;;;;;;3.65;1.45;;;20.40;72.40;;;;;;4975840;28;20192;-72
2023/08/08 07:36:24;;;;;;;2.90;1.33;;;20.40;72.20;;;;;;4987064;28;20224;-70
2023/08/08 07:38:50;;;;;;;2.55;1.40;;;20.40;72.10;;;;;;5014119;28;20208;-72
2023/08/08 07:41:16;;;;;;;1.40;1.30;;;20.40;71.90;;;;;;5014222;28;20200;-68
2023/08/08 07:43:41;;;;;;;2.28;1.33;;;20.40;71.90;;;;;;4981535;28;20220;-70
2023/08/08 07:46:07;;;;;;;1.77;1.52;;;20.40;71.90;;;;;;5005920;28;20188;-71
2023/08/08 07:48:33;;;;;;;1.92;1.30;;;20.40;71.80;;;;;;5013628;28;20262;-71
2023/08/08 07:50:58;;;;;;;3.03;1.33;;;20.40;71.80;;;;;;4981328;28;20203;-69
2023/08/08 07:53:24;;;;;;;1.45;1.30;;;20.40;71.50;;;;;;5005683;28;20250;-71
2023/08/08 07:55:50;;;;;;;3.28;1.42;;;20.50;71.40;;;;;;4976385;28;20228;-71
2023/08/08 07:58:16;;;;;;;4.68;1.40;;;20.50;71.30;;;;;;4978014;28;20224;-70
2023/08/08 08:00:41;;;;;;;6.72;1.95;;;20.50;71.00;;;;;;4985477;28;20231;-70
2023/08/08 08:03:07;;;;;;;7.93;1.88;;;20.50;71.00;;;;;;4993163;28;20578;-71
2023/08/08 08:05:34;;;;;;;15.57;2.72;;;20.50;71.00;;;;;;4997106;28;20191;-70
2023/08/08 08:08:00;;;;;;;9.00;2.58;;;20.60;71.10;;;;;;4981140;28;20212;-71
2023/08/08 08:10:26;;;;;;;8.57;2.20;;;20.60;71.00;;;;;;4997257;28;20210;-72
2023/08/08 08:12:57;;;;;;;13.63;3.00;;;20.60;71.00;;;;;;4997486;28;20199;-71
2023/08/08 08:15:25;;;;;;;9.93;2.83;;;20.60;71.10;;;;;;4997363;28;20192;-71
2023/08/08 08:17:51;;;;;;;9.40;2.50;;;20.70;71.60;;;;;;4968377;28;20220;-71
2023/08/08 08:20:16;;;;;;;14.23;2.58;;;20.70;71.70;;;;;;4985844;28;20291;-71
2023/08/08 08:22:42;;;;;;;12.75;2.58;;;20.60;71.60;;;;;;5010792;28;20212;-72
2023/08/08 08:25:09;;;;;;;5.97;2.45;;;20.70;71.80;;;;;;4993905;28;20246;-71
2023/08/08 08:27:38;;;;;;;14.77;2.72;;;20.60;71.50;;;;;;4996187;28;20236;-72
2023/08/08 08:30:06;;;;;;;13.65;2.30;;;20.60;71.50;;;;;;4996918;28;20203;-71
2023/08/08 08:32:37;;;;;;;11.10;2.70;;;20.60;71.20;;;;;;5012325;28;20184;-70
2023/08/08 08:35:04;;;;;;;9.70;2.22;;;20.60;71.20;;;;;;5006839;28;20193;-70
2023/08/08 08:37:30;;;;;;;8.88;2.25;;;20.70;71.20;;;;;;4977255;28;20633;-70
2023/08/08 08:39:56;;;;;;;5.05;1.98;;;20.60;70.90;;;;;;4977007;28;20255;-71
2023/08/08 08:42:23;;;;;;;5.63;1.83;;;20.70;70.80;;;;;;4998012;28;20188;-70
2023/08/08 08:44:51;;;;;;;4.97;1.90;;;20.70;70.60;;;;;;5006192;28;20203;-70
2023/08/08 08:47:20;;;;;;;5.68;2.20;;;20.70;70.50;;;;;;4980224;28;20239;-71
2023/08/08 08:49:46;;;;;;;6.40;2.03;;;20.70;70.30;;;;;;4993326;28;20196;-70
2023/08/08 08:52:12;;;;;;;3.75;1.92;;;20.70;70.00;;;;;;4977427;28;20196;-71
2023/08/08 08:54:38;;;;;;;3.90;1.80;;;20.70;69.90;;;;;;4977060;28;20200;-71
2023/08/08 08:57:04;;;;;;;2.67;1.70;;;20.70;69.90;;;;;;4999440;28;20200;-70
2023/08/08 08:59:30;;;;;;;5.85;1.70;;;20.70;69.90;;;;;;4996050;28;20222;-71
2023/08/08 09:01:57;;;;;;;4.53;1.65;;;20.70;69.70;;;;;;4979988;28;20196;-70
2023/08/08 09:04:23;;;;;;;6.53;1.77;;;20.60;67.50;;;;;;4977450;28;20208;-70
2023/08/08 09:06:51;;;;;;;4.80;1.90;;;20.50;67.60;;;;;;4967520;28;20193;-68
2023/08/08 09:09:17;;;;;;;2.35;1.73;;;20.60;69.30;;;;;;4985308;28;20240;-71
2023/08/08 09:11:50;;;;;;;3.65;1.98;;;20.60;69.40;;;;;;4979093;28;20192;-71
2023/08/08 09:14:25;;;;;;;5.28;1.70;;;20.60;69.00;;;;;;5000807;28;20188;-71
2023/08/08 09:16:53;;;;;;;3.22;1.67;;;20.70;68.80;;;;;;4987948;28;20196;-70
2023/08/08 09:19:20;;;;;;;5.85;1.90;;;20.70;68.10;;;;;;4996813;28;20217;-70
2023/08/08 09:21:47;;;;;;;4.68;2.08;;;20.70;68.00;;;;;;5004209;28;20287;-72
2023/08/08 09:24:14;;;;;;;3.83;2.10;;;20.70;68.10;;;;;;4986413;28;20570;-70
2023/08/08 09:26:41;;;;;;;5.28;1.55;;;20.80;68.10;;;;;;4980770;28;20224;-70
2023/08/08 09:29:09;;;;;;;3.40;1.60;;;20.80;68.10;;;;;;5000197;28;20647;-70
2023/08/08 09:31:35;;;;;;;6.85;1.92;;;20.80;68.10;;;;;;5010325;28;20271;-68
2023/08/08 09:34:03;;;;;;;3.92;1.60;;;20.80;68.30;;;;;;5012208;28;20230;-70
2023/08/08 09:36:29;;;;;;;5.25;1.73;;;20.80;68.30;;;;;;5011667;28;20267;-70
2023/08/08 09:38:56;;;;;;;3.65;1.70;;;20.80;68.40;;;;;;5002001;28;20303;-70
2023/08/08 09:41:24;;;;;;;2.58;1.50;;;20.80;68.50;;;;;;4992247;28;20196;-69
2023/08/08 09:43:52;;;;;;;10.35;2.08;;;20.80;68.50;;;;;;4967933;28;20231;-70
2023/08/08 09:46:22;;;;;;;3.17;2.15;;;20.80;68.60;;;;;;4976156;28;20200;-69
2023/08/08 09:48:48;;;;;;;2.40;1.48;;;20.80;68.70;;;;;;4967522;28;20327;-69
2023/08/08 09:51:15;;;;;;;7.50;2.30;;;20.70;68.70;;;;;;4986816;28;20263;-69
2023/08/08 09:53:41;;;;;;;5.95;1.60;;;20.80;68.80;;;;;;4963400;28;20184;-69
2023/08/08 09:56:08;;;;;;;6.53;2.15;;;20.80;69.00;;;;;;4989877;28;20255;-69
2023/08/08 09:58:34;;;;;;;3.83;1.60;;;20.80;69.10;;;;;;4976961;28;20205;-69
2023/08/08 10:01:00;;;;;;;6.05;1.77;;;20.80;69.10;;;;;;4981995;28;20227;-69
2023/08/08 10:03:26;;;;;;;3.22;1.70;;;20.80;69.10;;;;;;5001954;28;20189;-69
2023/08/08 10:05:52;;;;;;;6.43;1.83;;;20.80;69.10;;;;;;4975450;28;20192;-69
2023/08/08 10:08:19;;;;;;;6.35;1.90;;;20.80;69.30;;;;;;4983014;28;20199;-69
2023/08/08 10:10:48;;;;;;;3.45;1.77;;;20.80;69.10;;;;;;4984074;28;20204;-69
2023/08/08 10:13:26;;;;;;;7.70;2.17;;;20.70;69.40;;;;;;4975341;28;20242;-69
2023/08/08 10:15:53;;;;;;;3.55;1.73;;;20.70;69.30;;;;;;4995982;28;20226;-68
2023/08/08 10:18:23;;;;;;;6.38;1.60;;;20.70;69.30;;;;;;4962464;28;20200;-68
2023/08/08 10:20:50;;;;;;;2.72;1.58;;;20.70;69.40;;;;;;5000004;28;20220;-69
2023/08/08 10:23:18;;;;;;;4.10;1.85;;;20.70;69.20;;;;;;4982964;28;20195;-68
2023/08/08 10:25:50;;;;;;;6.80;1.92;;;20.70;69.20;;;;;;4983333;28;20271;-67
2023/08/08 10:28:20;;;;;;;2.85;1.70;;;20.70;69.20;;;;;;4992429;28;20225;-69
2023/08/08 10:30:49;;;;;;;4.05;1.83;;;20.70;69.20;;;;;;4983653;28;20200;-69
2023/08/08 10:33:38;;;;;;;3.25;1.63;;;20.70;69.20;;;;;;4975102;28;20189;-69
2023/08/08 10:36:07;;;;;;;2.75;1.35;;;20.70;69.20;;;;;;4996073;28;20219;-69
2023/08/08 10:38:44;;;;;;;4.47;1.60;;;20.70;69.40;;;;;;5000759;28;20218;-70
2023/08/08 10:41:13;;;;;;;5.47;1.83;;;20.70;69.70;;;;;;4987211;28;20247;-69
2023/08/08 10:43:48;;;;;;;5.30;1.85;;;20.70;69.50;;;;;;4992093;28;20206;-68
2023/08/08 10:46:13;;;;;;;3.08;1.63;;;20.70;69.10;;;;;;4999373;28;20234;-69
2023/08/08 10:48:53;;;;;;;4.70;2.05;;;20.70;69.20;;;;;;4999141;28;20212;-69
2023/08/08 10:51:19;;;;;;;3.30;1.70;;;20.70;69.40;;;;;;4998685;28;20183;-69
2023/08/08 10:53:46;;;;;;;2.65;1.63;;;20.70;69.20;;;;;;4969254;28;20199;-70
2023/08/08 10:56:14;;;;;;;2.28;1.50;;;20.70;69.00;;;;;;4987855;28;20581;-69
2023/08/08 10:58:47;;;;;;;2.30;1.35;;;20.70;69.20;;;;;;5002485;28;20216;-70
2023/08/08 11:01:14;;;;;;;4.32;1.92;;;20.70;69.40;;;;;;4971033;28;20204;-68
2023/08/08 11:03:41;;;;;;;2.67;1.58;;;20.70;69.40;;;;;;5009550;28;20203;-69
2023/08/08 11:06:08;;;;;;;2.17;1.50;;;20.70;69.40;;;;;;4976754;28;20188;-68
2023/08/08 11:08:37;;;;;;;4.38;1.70;;;20.70;69.30;;;;;;4999031;28;20247;-70
2023/08/08 11:11:05;;;;;;;3.15;1.20;;;20.70;69.30;;;;;;4992588;28;20255;-69
2023/08/08 11:13:32;;;;;;;1.85;1.35;;;20.70;69.20;;;;;;4996352;28;20209;-69
2023/08/08 11:15:58;;;;;;;2.00;1.42;;;20.70;69.10;;;;;;4977445;28;20196;-69
2023/08/08 11:18:25;;;;;;;2.50;1.45;;;20.80;69.40;;;;;;4970264;28;20214;-68
2023/08/08 11:20:51;;;;;;;2.33;1.60;;;20.70;69.40;;;;;;4978837;28;20208;-70
2023/08/08 11:23:18;;;;;;;2.08;1.42;;;20.70;69.40;;;;;;5002072;28;20184;-69
2023/08/08 11:25:45;;;;;;;2.03;1.65;;;20.70;69.30;;;;;;4995182;28;20275;-68
2023/08/08 11:28:12;;;;;;;2.45;1.55;;;20.80;69.80;;;;;;4978521;28;20215;-69
2023/08/08 11:30:43;;;;;;;4.20;1.70;;;20.70;69.40;;;;;;4988147;28;20279;-69
2023/08/08 11:33:12;;;;;;;5.28;1.80;;;20.70;69.00;;;;;;5014293;28;20194;-69
2023/08/08 11:35:45;;;;;;;5.25;1.90;;;20.70;66.40;;;;;;4989943;28;20536;-69
2023/08/08 11:38:12;;;;;;;4.93;1.98;;;20.70;68.50;;;;;;5014756;28;20211;-70
2023/08/08 11:40:38;;;;;;;6.45;2.00;;;20.80;69.10;;;;;;5012972;28;20216;-69
2023/08/08 11:43:04;;;;;;;8.20;2.05;;;20.80;68.30;;;;;;5014170;28;20263;-70
2023/08/08 11:45:32;;;;;;;5.40;1.85;;;20.90;68.20;;;;;;4981548;28;20208;-69
2023/08/08 11:47:58;;;;;;;5.75;1.70;;;20.90;67.90;;;;;;4981003;28;20250;-69
2023/08/08 11:50:27;;;;;;;4.70;1.60;;;21.00;68.00;;;;;;4981403;28;20188;-69
2023/08/08 11:52:54;;;;;;;4.25;1.90;;;21.00;67.80;;;;;;5006090;28;20567;-69
2023/08/08 11:55:26;;;;;;;8.93;1.90;;;21.00;67.80;;;;;;4990402;28;20247;-70
2023/08/08 11:58:01;;;;;;;5.55;1.73;;;21.00;67.80;;;;;;5006963;28;20216;-70
2023/08/08 12:00:30;;;;;;;3.30;1.40;;;21.00;68.00;;;;;;4996892;28;20207;-69
2023/08/08 12:02:57;;;;;;;3.40;1.60;;;21.00;68.00;;;;;;5003549;28;20176;-69
2023/08/08 12:05:24;;;;;;;3.97;1.60;;;21.00;68.10;;;;;;4972751;28;20184;-70
2023/08/08 12:07:50;;;;;;;5.13;1.77;;;21.00;68.00;;;;;;4988192;28;20212;-73
2023/08/08 12:10:22;;;;;;;3.00;1.73;;;21.10;68.40;;;;;;4998776;28;20272;-69
2023/08/08 12:12:55;;;;;;;3.17;1.40;;;21.10;68.40;;;;;;4993676;28;20185;-69
2023/08/08 12:15:21;;;;;;;3.92;1.58;;;21.10;68.70;;;;;;4992906;28;20242;-69
2023/08/08 12:17:47;;;;;;;2.75;1.60;;;21.10;68.70;;;;;;4961828;28;20208;-70
2023/08/08 12:20:15;;;;;;;6.50;1.65;;;21.10;68.80;;;;;;4991994;28;20247;-69
2023/08/08 12:22:41;;;;;;;3.42;1.85;;;21.10;68.80;;;;;;4996739;28;20191;-70
2023/08/08 12:25:08;;;;;;;2.15;1.42;;;21.10;69.00;;;;;;4996881;28;20184;-70
2023/08/08 12:27:34;;;;;;;2.90;1.70;;;21.10;68.90;;;;;;4988670;28;20208;-69
2023/08/08 12:30:00;;;;;;;3.67;1.92;;;21.10;69.00;;;;;;4992542;28;20258;-69
2023/08/08 12:32:28;;;;;;;2.83;1.35;;;21.10;68.90;;;;;;4969302;28;20242;-69
2023/08/08 12:34:55;;;;;;;2.65;1.52;;;21.10;68.90;;;;;;5001508;28;20189;-69
2023/08/08 12:37:23;;;;;;;2.10;1.70;;;21.10;69.00;;;;;;4994457;28;20189;-70
2023/08/08 12:39:49;;;;;;;3.22;1.77;;;21.10;69.00;;;;;;4979789;28;20264;-69
2023/08/08 12:42:16;;;;;;;5.50;1.55;;;21.10;68.60;;;;;;4999576;28;20189;-70
2023/08/08 12:44:42;;;;;;;1.80;1.20;;;21.10;68.90;;;;;;4977219;28;20656;-69